Latest Weather Observations for Scone Airport

IDN60801

Issued at 5:02 am EDT Saturday 3 December 2016 (issued every 30 minutes, with the page automatically refreshed every 10 minutes)

About weather observations | Map of weather stations | Latest weather observations for NSW | Other Formats
Station Details ID: 061363 Name: SCONE AIRPORT AWS Lat: -32.03 Lon: 150.83 Height: 221.4 m
Data from the previous 72 hours. | See also: Recent months at Scone Airport
Date/Time
EDT
Temp
°C
App
Temp
°C
Dew
Point
°C
Rel
Hum
%
Delta-T
°C
Wind Press
QNH
hPa
Press
MSL
hPa
Rain since
9am
mm
Dir  Spd
km/h
Gust
km/h
Spd
kts
Gust
kts
03/05:00am 21.1 17.8 12.8 59 4.8 S 22 28 12 15 1011.9 1010.9 0.0
03/04:30am 20.2 19.7 11.9 59 4.7 ESE 6 9 3 5 1011.3 1010.3 0.0
03/04:00am 20.6 21.1 11.5 56 5.1 CALM 0 0 0 0 1011.0 1010.0 0.0
03/03:30am 20.2 20.6 11.4 57 4.9 CALM 0 6 0 3 1010.9 1009.9 0.0
03/03:00am 22.1 20.5 10.3 47 6.5 SSW 9 11 5 6 1011.1 1010.1 0.0
03/02:30am 22.1 22.3 10.6 48 6.4 CALM 0 0 0 0 1011.4 1010.5 0.0
03/02:00am 22.3 21.2 10.8 48 6.4 NW 7 11 4 6 1011.9 1010.9 0.0
03/01:30am 21.7 21.4 10.2 48 6.3 WSW 2 11 1 6 1012.4 1011.4 0.0
03/01:00am 23.2 23.2 9.9 43 7.3 CALM 0 4 0 2 1012.6 1011.6 0.0
03/12:30am 24.2 22.2 10.1 41 7.8 NW 11 17 6 9 1012.9 1011.9 0.0
03/12:00am 24.6 21.6 9.3 38 8.4 NW 15 19 8 10 1013.2 1012.2 0.0
 
Date/Time
EDT
Temp
°C
App
Temp
°C
Dew
Point
°C
Rel
Hum
%
Delta-T
°C
Wind Press
QNH
hPa
Press
MSL
hPa
Rain since
9am
mm
Dir  Spd
km/h
Gust
km/h
Spd
kts
Gust
kts
02/11:30pm 24.5 23.5 8.9 37 8.5 W 4 7 2 4 1012.9 1011.9 0.0
02/11:00pm 25.3 25.1 9.2 36 8.9 CALM 0 0 0 0 1012.9 1011.9 0.0
02/10:30pm 26.0 24.4 8.0 32 9.7 NNE 6 7 3 4 1013.0 1012.0 0.0
02/10:00pm 27.1 25.1 7.0 28 10.8 W 7 11 4 6 1013.1 1012.1 0.0
02/09:30pm 28.8 25.2 6.8 25 11.8 E 15 22 8 12 1013.0 1012.0 0.0
02/09:00pm 28.2 25.9 7.4 27 11.3 E 9 15 5 8 1012.9 1011.9 0.0
02/08:30pm 28.7 26.6 6.7 25 11.8 SE 7 13 4 7 1012.5 1011.5 0.0
02/08:00pm 29.4 26.4 6.1 23 12.4 SSE 11 15 6 8 1011.9 1010.9 0.0
02/07:30pm 31.2 27.0 5.6 20 13.7 SSW 17 28 9 15 1011.4 1010.5 0.0
02/07:00pm 32.6 27.7 5.2 18 14.7 SSW 20 32 11 17 1010.7 1009.7 0.0
02/06:30pm 33.3 29.1 5.8 18 14.9 SW 17 24 9 13 1009.8 1008.8 0.0
02/06:00pm 33.2 29.8 5.7 18 14.9 WSW 13 19 7 10 1009.6 1008.6 0.0
02/05:30pm 33.6 29.3 5.2 17 15.3 WSW 17 28 9 15 1008.8 1007.8 0.0
02/05:05pm 34.1 26.5 3.8 15 16.0 W 33 52 18 28 1009.4 1008.4 0.0
02/05:00pm 34.3 27.3 4.0 15 16.1 W 30 43 16 23 1009.4 1008.4 0.0
02/04:30pm 35.1 27.6 3.6 14 16.6 W 32 43 17 23 1009.0 1008.0 0.0
02/04:00pm 37.6 30.1 3.4 12 18.3 WSW 32 46 17 25 1008.5 1007.5 0.0
02/03:33pm 36.5 29.2 2.5 12 17.8 SW 30 50 16 27 1008.1 1007.1 0.0
02/03:30pm 36.7 29.1 2.7 12 17.9 WSW 32 44 17 24 1008.1 1007.1 0.0
02/03:09pm 37.2 30.4 3.1 12 18.1 WSW 28 50 15 27 1008.3 1007.3 0.0
02/03:00pm 36.2 29.5 3.4 13 17.4 WSW 28 43 15 23 1008.3 1007.3 0.0
02/02:37pm 37.3 30.1 3.1 12 18.2 W 30 48 16 26 1008.2 1007.2 0.0
02/02:30pm 37.5 31.5 3.3 12 18.2 WSW 24 39 13 21 1008.2 1007.2 0.0
02/02:17pm 37.8 31.1 3.5 12 18.4 W 28 57 15 31 1008.3 1007.3 0.0
02/02:00pm 37.5 32.3 3.3 12 18.3 SW 20 37 11 20 1008.4 1007.4 0.0
02/01:38pm 37.2 30.4 3.1 12 18.1 W 28 50 15 27 1008.7 1007.7 0.0
02/01:30pm 36.9 31.4 1.6 11 18.3 W 20 33 11 18 1008.6 1007.6 0.0
02/01:00pm 35.8 31.3 2.0 12 17.5 W 15 24 8 13 1008.9 1007.9 0.0
02/12:30pm 35.4 31.8 2.8 13 17.0 WNW 11 24 6 13 1009.0 1008.0 0.0
02/12:00pm 34.1 30.5 2.8 14 16.3 NW 11 20 6 11 1009.1 1008.1 0.0
02/11:30am 33.3 29.6 2.2 14 15.9 S 11 20 6 11 1009.6 1008.6 0.0
02/11:00am 32.9 28.9 2.9 15 15.5 W 13 19 7 10 1010.0 1009.0 0.0
02/10:30am 31.6 29.5 5.9 20 13.8 E 6 11 3 6 1010.2 1009.2 0.0
02/10:00am 30.4 28.7 7.6 24 12.6 NE 6 13 3 7 1010.0 1009.0 0.0
02/09:30am 28.7 27.5 10.4 32 10.4 NE 7 11 4 6 1010.1 1009.1 0.0
02/09:00am 26.1 25.1 10.3 37 8.9 NE 6 11 3 6 1010.0 1009.0 0.0
02/08:30am 24.4 24.9 11.7 45 7.3 CALM 0 0 0 0 1010.2 1009.2 0.0
02/08:00am 20.8 21.2 11.4 55 5.3 CALM 0 6 0 3 1010.0 1009.0 0.0
02/07:30am 19.4 19.4 11.2 59 4.5 ESE 2 9 1 5 1009.6 1008.6 0.0
02/07:00am 16.3 16.6 11.0 71 2.9 CALM 0 0 0 0 1009.7 1008.7 0.0
02/06:30am 14.6 15.0 11.2 80 1.8 CALM 0 0 0 0 1009.5 1008.5 0.0
02/06:00am 12.4 12.4 9.8 84 1.3 CALM 0 6 0 3 1009.3 1008.3 0.0
02/05:30am 12.2 10.9 9.2 82 1.5 NNW 6 11 3 6 1009.1 1008.1 0.0
02/05:00am 12.9 11.6 9.9 82 1.6 NNE 7 13 4 7 1008.6 1007.6 0.0
02/04:30am 12.3 11.0 10.0 86 1.2 WNW 7 9 4 5 1008.4 1007.4 0.0
02/04:00am 12.9 11.7 9.4 79 1.8 N 6 9 3 5 1008.0 1007.0 0.0
02/03:30am 13.1 13.1 9.7 80 1.8 CALM 0 0 0 0 1007.9 1006.9 0.0
02/03:00am 13.6 13.7 10.2 80 1.8 CALM 0 0 0 0 1007.7 1006.7 0.0
02/02:30am 14.3 14.4 10.1 76 2.2 CALM 0 0 0 0 1007.7 1006.7 0.0
02/02:00am 14.7 14.7 9.9 73 2.5 CALM 0 0 0 0 1007.6 1006.6 0.0
02/01:30am 14.7 14.8 10.3 75 2.3 CALM 0 0 0 0 1007.6 1006.6 0.0
02/01:00am 15.2 15.5 10.8 75 2.4 CALM 0 0 0 0 1007.7 1006.7 0.0
02/12:30am 15.4 14.3 10.6 73 2.6 WNW 7 9 4 5 1007.7 1006.7 0.0
02/12:00am 15.6 14.1 10.4 71 2.8 WNW 9 13 5 7 1007.6 1006.6 0.0
 
Date/Time
EDT
Temp
°C
App
Temp
°C
Dew
Point
°C
Rel
Hum
%
Delta-T
°C
Wind Press
QNH
hPa
Press
MSL
hPa
Rain since
9am
mm
Dir  Spd
km/h
Gust
km/h
Spd
kts
Gust
kts
01/11:30pm 17.0 17.4 11.1 68 3.2 CALM 0 6 0 3 1007.6 1006.6 0.0
01/11:00pm 17.3 16.5 10.9 66 3.5 N 6 7 3 4 1007.7 1006.7 0.0
01/10:30pm 18.5 18.1 11.1 62 4.1 N 4 11 2 6 1007.7 1006.7 0.0
01/10:00pm 18.9 19.1 11.7 63 4.0 N 2 9 1 5 1007.5 1006.5 0.0
01/09:30pm 20.9 20.1 11.8 56 5.1 NNE 7 9 4 5 1007.2 1006.1 0.0
01/09:00pm 23.1 23.5 12.4 51 6.2 ESE 2 9 1 5 1006.8 1005.8 0.0
01/08:30pm 24.4 21.7 11.7 45 7.3 S 17 20 9 11 1006.4 1005.4 0.0
01/08:00pm 26.2 23.2 9.1 34 9.5 SSW 15 19 8 10 1006.0 1005.0 0.0
01/07:30pm 29.1 26.2 4.6 21 12.7 SSE 9 9 5 5 1005.6 1004.6 0.0
01/07:00pm 32.2 27.4 0.3 13 15.8 SW 15 20 8 11 1005.2 1004.2 0.0
01/06:30pm 33.5 29.6 1.3 13 16.2 SW 11 20 6 11 1004.9 1003.9 0.0
01/06:00pm 33.7 30.6 1.5 13 16.4 W 7 13 4 7 1004.7 1003.7 0.0
01/05:30pm 32.8 30.1 2.8 15 15.4 S 6 15 3 8 1004.6 1003.6 0.0
01/05:00pm 33.1 31.3 5.6 18 14.9 S 4 13 2 7 1004.9 1003.9 0.0
01/04:30pm 33.3 31.8 6.6 19 14.7 SSE 4 9 2 5 1005.1 1004.1 0.0
01/04:00pm 31.7 30.4 6.0 20 13.9 NNW 2 13 1 7 1005.3 1004.3 0.0
01/03:30pm 33.8 31.8 7.0 19 14.8 WNW 7 17 4 9 1005.4 1004.4 0.0
01/03:00pm 31.8 27.8 6.8 21 13.7 WNW 17 24 9 13 1005.6 1004.6 0.0
01/02:30pm 33.0 29.1 7.1 20 14.3 W 17 24 9 13 1005.8 1004.8 0.0
01/02:00pm 32.5 30.1 5.1 18 14.7 SW 7 15 4 8 1006.0 1005.0 0.0
01/01:30pm 32.3 30.1 7.9 22 13.6 NW 9 19 5 10 1006.1 1005.1 0.0
01/01:00pm 31.9 28.6 8.2 23 13.3 WNW 15 24 8 13 1006.4 1005.4 0.0
01/12:30pm 31.8 28.6 9.9 26 12.6 NW 17 24 9 13 1006.9 1005.9 0.0
01/12:00pm 30.5 28.6 10.5 29 11.6 NW 11 22 6 12 1007.2 1006.1 0.0
01/11:30am 29.4 27.9 10.5 31 10.8 WNW 9 20 5 11 1007.4 1006.3 0.0
01/11:00am 27.8 26.9 11.4 36 9.5 W 7 15 4 8 1007.6 1006.6 0.0
01/10:30am 26.3 26.2 13.4 45 7.7 SSE 6 11 3 6 1007.9 1007.1 0.0
01/10:00am 24.3 25.1 14.7 55 5.8 NE 4 9 2 5 1008.1 1007.3 0.0
01/09:30am 21.2 21.9 14.6 66 3.9 W 4 9 2 5 1008.7 1007.9 0.0
01/09:00am 20.2 21.5 15.2 73 3.0 NW 2 6 1 3 1008.8 1008.0 1.2
01/08:30am 19.8 20.1 14.6 72 3.1 N 6 7 3 4 1009.5 1008.7 1.2
01/08:00am 18.7 19.3 15.2 80 2.1 WNW 6 7 3 4 1009.7 1008.9 1.2
01/07:30am 17.1 17.5 14.7 86 1.4 NW 6 9 3 5 1009.6 1008.8 1.2
01/07:00am 15.9 15.6 14.4 91 0.9 NW 9 13 5 7 1009.8 1009.0 1.2
01/06:30am 15.4 14.9 13.9 91 0.9 NNE 9 13 5 7 1009.7 1008.9 1.0
01/06:00am 15.8 16.2 13.6 87 1.2 WNW 4 9 2 5 1009.9 1009.1 0.6
01/05:30am 15.3 13.6 12.6 84 1.5 W 13 17 7 9 1009.6 1008.8 0.0
01/05:00am 15.4 14.4 12.3 82 1.7 NNE 9 11 5 6 1009.2 1008.4 0.0
01/04:30am 14.2 13.5 11.9 86 1.3 NNE 7 9 4 5 1008.9 1008.1 0.0
01/04:00am 13.5 14.1 11.9 90 0.9 CALM 0 0 0 0 1008.6 1007.8 0.0
01/03:30am 13.3 12.6 11.9 91 0.8 WNW 7 9 4 5 1008.0 1007.2 0.0
01/03:00am 13.2 11.9 11.4 89 1.0 WNW 9 11 5 6 1008.0 1007.2 0.0
01/02:30am 13.0 11.3 11.2 89 1.0 WNW 11 15 6 8 1008.3 1007.5 0.0
01/02:00am 13.3 12.4 10.5 83 1.5 WNW 6 6 3 3 1008.6 1007.8 0.0
01/01:30am 14.0 13.6 11.2 83 1.5 WNW 4 7 2 4 1008.7 1007.9 0.0
01/01:00am 14.2 14.7 11.7 85 1.4 CALM 0 0 0 0 1008.7 1007.9 0.0
01/12:30am 14.8 14.2 11.8 82 1.6 W 6 9 3 5 1008.7 1007.9 0.0
01/12:00am 15.3 14.1 11.7 79 2.0 WNW 9 11 5 6 1008.6 1007.8 0.0
 
Date/Time
EDT
Temp
°C
App
Temp
°C
Dew
Point
°C
Rel
Hum
%
Delta-T
°C
Wind Press
QNH
hPa
Press
MSL
hPa
Rain since
9am
mm
Dir  Spd
km/h
Gust
km/h
Spd
kts
Gust
kts
30/11:30pm 16.6 16.3 11.3 71 2.9 NE 4 15 2 8 1008.4 1007.6 0.0
30/11:00pm 16.4 15.4 12.4 77 2.2 WNW 9 13 5 7 1008.8 1008.0 0.0
30/10:30pm 17.9 15.4 12.4 70 3.1 SE 17 24 9 13 1009.0 1008.2 0.0
30/10:00pm 18.2 15.2 12.0 67 3.5 SSE 19 24 10 13 1009.8 1009.0 0.0
30/09:30pm 17.0 15.0 11.5 70 3.0 WNW 13 17 7 9 1009.8 1009.0 0.0
30/09:00pm 19.0 16.7 11.8 63 4.0 S 15 17 8 9 1009.5 1008.7 0.0
30/08:30pm 19.0 17.9 12.0 64 3.9 SW 9 11 5 6 1009.3 1008.5 0.0
30/08:00pm 19.9 18.1 12.2 61 4.4 S 13 20 7 11 1009.5 1008.7 0.0
30/07:30pm 20.8 17.8 12.5 59 4.7 S 20 28 11 15 1009.3 1008.5 0.0
30/07:00pm 21.3 18.8 12.4 57 5.1 S 17 20 9 11 1008.7 1007.9 0.0
30/06:30pm 19.8 16.3 13.3 66 3.7 S 24 30 13 16 1008.6 1007.8 0.0
30/06:00pm 22.3 21.2 12.0 52 5.9 ESE 9 17 5 9 1007.8 1006.9 0.0
30/05:30pm 21.0 18.1 12.9 60 4.7 ESE 20 30 11 16 1007.0 1006.2 0.0
30/05:15pm 21.6 17.3 11.9 54 5.5 SSE 26 41 14 22 1008.1 1007.3 0.0
30/05:00pm 26.2 24.0 7.7 31 10.0 SSE 9 19 5 10 1007.9 1007.1 0.0
30/04:30pm 28.8 25.7 5.6 23 12.2 WNW 11 13 6 7 1006.0 1005.2 0.0
30/04:00pm 30.1 26.7 4.0 19 13.5 NW 11 15 6 8 1006.3 1005.5 0.0
30/03:30pm 27.5 22.4 10.7 35 9.6 NW 28 39 15 21 1006.7 1005.9 0.0
30/03:19pm 30.0 25.8 3.9 19 13.5 W 15 37 8 20 1006.7 1005.9 0.0
30/03:00pm 31.7 30.1 8.0 23 13.2 NE 6 13 3 7 1006.5 1005.7 0.0
30/02:30pm 31.3 27.7 8.3 24 12.8 ENE 17 26 9 14 1007.3 1006.4 0.0
30/02:00pm 31.7 29.2 8.0 23 13.2 NE 11 22 6 12 1007.9 1007.1 0.0
30/01:30pm 31.5 29.8 11.3 29 11.8 ENE 11 19 6 10 1008.5 1007.7 0.0
30/01:00pm 30.2 29.5 12.1 32 10.7 NE 7 17 4 9 1009.2 1008.4 0.0
30/12:30pm 29.3 28.4 12.7 36 9.9 ENE 9 19 5 10 1009.7 1008.9 0.0
30/12:00pm 28.7 27.8 12.6 37 9.5 W 9 19 5 10 1010.3 1009.5 0.0
30/11:30am 27.2 26.1 13.2 42 8.3 NW 11 24 6 13 1010.6 1009.8 0.0
30/11:00am 26.4 26.6 14.8 49 7.0 SSE 7 13 4 7 1011.1 1010.3 0.0
30/10:30am 25.3 25.8 15.0 53 6.2 S 6 13 3 7 1011.3 1010.5 0.0
30/10:00am 24.1 25.0 16.1 61 4.9 NE 6 9 3 5 1011.9 1011.1 0.0
30/09:30am 22.5 22.8 15.1 63 4.4 WSW 7 13 4 7 1012.0 1011.2 0.0
30/09:00am 21.2 22.3 15.5 70 3.4 SSW 4 7 2 4 1012.1 1011.3 0.0
30/08:30am 19.9 20.0 15.5 76 2.6 SSE 9 13 5 7 1012.3 1011.5 0.0
30/08:00am 19.9 19.9 16.2 79 2.2 ESE 11 15 6 8 1012.0 1011.2 0.0
30/07:30am 19.1 19.7 16.9 87 1.3 SE 9 13 5 7 1012.1 1011.3 0.0
30/07:00am 18.0 18.3 17.0 94 0.6 SSE 11 13 6 7 1011.9 1011.1 0.0
30/06:30am 17.4 19.4 16.9 97 0.3 NE 2 6 1 3 1011.5 1010.7 0.0
30/06:00am 16.8 19.0 16.5 98 0.2 CALM 0 0 0 0 1011.3 1010.5 0.0
30/05:30am 16.2 18.2 15.9 98 0.2 CALM 0 0 0 0 1011.2 1010.4 0.0

Other Formats:

Comma delimited format used in spreadsheet applications
http://www.bom.gov.au/fwo/IDN60801/IDN60801.95758.axf

JavaScript Object Notation format (JSON) in row-major order
http://www.bom.gov.au/fwo/IDN60801/IDN60801.95758.json